CheckWX is a tool to help pilots better visualize weather data.  It is not intended as a substitute for an official pre-flight weather briefing.

17:48:23 UTC

EGPA METAR
Kirkwall Airport
Orkney Islands, United Kingdom
Current

28 mins ago

EGPA 241720Z 29030KT 9999 FEW010 FEW016CB 05/02 Q1012
Observed
Mar-24 @ 17:20 UTC
Wind
  • 290° at 30 KTS
Visibility
10,000+ meters
Flight Rules
VFR
Cloud Levels
  • Few at 1,000' AGL
  • Few at 1,600' AGL
Temperature
C / 41°F
Dewpoint
C / 36°F
Humidity
81%
Altimeter
29.88" Hg
Pressure
1011.92 hPa
Previous

58 mins ago

EGPA 241650Z 28023KT 9999 7000NW -SHRA FEW010 BKN016CB 05/03 Q1012
Observed
Mar-24 @ 16:50 UTC
Wind
  • 280° at 23 KTS
Visibility
10,000+ meters
Flight Rules
MVFR
Conditions
Light Rain
Cloud Levels
  • Few at 1,000' AGL
  • Broken at 1,600' AGL
Temperature
C / 41°F
Dewpoint
C / 37°F
Humidity
87%
Altimeter
29.88" Hg
Pressure
1011.92 hPa
Previous

1 hour ago

EGPA 241620Z 29023KT 9999 VCSH SCT016CB SCT020 04/02 Q1012 RESHRA RESHSN
Observed
Mar-24 @ 16:20 UTC
Wind
  • 290° at 23 KTS
Visibility
10,000+ meters
Flight Rules
VFR
Conditions
Snow
Cloud Levels
  • Scattered at 1,600' AGL
  • Scattered at 2,000' AGL
Temperature
C / 39°F
Dewpoint
C / 36°F
Humidity
87%
Altimeter
29.88" Hg
Pressure
1011.92 hPa